Time;durP1;ratioP1;P1;durP2;ratioP2;P2;SDS_P1;SDS_P2;PMS_P1;PMS_P2;Temp;Humidity;BMP_temperature;BMP_pressure;BME280_temperature;BME280_humidity;BME280_pressure;Samples;Min_cycle;Max_cycle;Signal;HPM_P1;HPM_P2
2022/07/22 00:04:19;;;;;;;58.63;34.30;;;;;;;17.48;88.11;100699.75;10193107;28;20678;-77
2022/07/22 00:09:22;;;;;;;67.63;37.08;;;;;;;17.45;89.15;100709.06;10206753;28;20051;-78
2022/07/22 00:14:25;;;;;;;40.70;26.08;;;;;;;16.61;94.11;100723.16;10204895;29;20091;-79
2022/07/22 00:19:29;;;;;;;48.33;28.27;;;;;;;17.20;91.17;100718.09;10222761;28;20259;-79
2022/07/22 00:24:32;;;;;;;25.67;15.43;;;;;;;16.68;91.29;100720.72;10206274;28;20051;-79
2022/07/22 00:29:35;;;;;;;19.42;13.00;;;;;;;16.58;90.57;100728.91;10209487;28;20698;-79
2022/07/22 00:34:39;;;;;;;20.30;12.82;;;;;;;16.29;90.87;100730.00;10201943;28;20079;-78
2022/07/22 00:39:42;;;;;;;24.55;13.85;;;;;;;16.58;90.07;100745.19;10197295;28;20055;-79
2022/07/22 00:44:45;;;;;;;22.40;13.52;;;;;;;16.24;91.55;100751.25;10215730;28;20062;-80
2022/07/22 00:49:50;;;;;;;25.52;13.45;;;;;;;16.48;89.18;100757.94;10204262;28;20060;-81
2022/07/22 00:54:53;;;;;;;20.27;12.07;;;;;;;16.03;91.58;100753.38;10204949;28;20424;-79
2022/07/22 00:59:56;;;;;;;19.40;11.65;;;;;;;15.87;91.64;100749.44;10227892;28;20054;-81
2022/07/22 01:05:00;;;;;;;12.77;9.63;;;;;;;16.28;89.97;100749.09;10210398;28;20504;-80
2022/07/22 01:10:04;;;;;;;15.60;9.70;;;;;;;15.87;90.75;100759.44;10220186;28;20165;-79
2022/07/22 01:15:08;;;;;;;13.32;9.48;;;;;;;16.06;90.10;100772.88;10181505;29;20676;-80
2022/07/22 01:20:13;;;;;;;10.07;8.93;;;;;;;15.66;92.46;100768.66;10194907;28;20086;-81
2022/07/22 01:25:16;;;;;;;14.98;9.70;;;;;;;16.12;89.92;100776.84;10220423;28;20061;-79
2022/07/22 01:30:19;;;;;;;18.45;10.68;;;;;;;15.72;90.73;100771.78;10230671;28;20063;-79
2022/07/22 01:35:23;;;;;;;17.10;13.35;;;;;;;15.77;90.85;100775.75;10211939;28;20180;-81
2022/07/22 01:40:26;;;;;;;19.90;13.27;;;;;;;15.84;89.80;100779.53;10211124;28;20051;-79
2022/07/22 01:45:29;;;;;;;20.65;12.52;;;;;;;15.38;90.66;100788.53;10213719;28;20039;-79
2022/07/22 01:50:34;;;;;;;16.85;10.30;;;;;;;15.57;89.90;100788.47;10212260;28;20059;-80
2022/07/22 01:55:37;;;;;;;19.35;12.60;;;;;;;15.24;90.90;100785.25;10202151;28;20067;-80
2022/07/22 02:00:41;;;;;;;15.30;10.02;;;;;;;15.04;90.45;100792.53;10201230;28;20089;-80
2022/07/22 02:05:45;;;;;;;14.18;10.45;;;;;;;15.83;88.11;100790.53;10218284;28;20126;-79
2022/07/22 02:10:55;;;;;;;17.75;9.70;;;;;;;15.55;89.14;100801.34;10225865;28;20393;-80
2022/07/22 02:15:58;;;;;;;15.60;10.73;;;;;;;15.82;87.92;100800.50;10223491;28;20058;-80
2022/07/22 02:21:03;;;;;;;19.90;11.55;;;;;;;15.97;86.67;100808.16;10225245;28;20138;-80
2022/07/22 02:26:06;;;;;;;16.30;10.10;;;;;;;15.77;87.62;100807.38;10211121;28;20048;-79
2022/07/22 02:31:09;;;;;;;11.30;7.63;;;;;;;15.14;89.50;100806.06;10189994;28;20074;-79
2022/07/22 02:36:15;;;;;;;12.15;6.82;;;;;;;15.57;88.18;100814.69;10211097;28;20077;-80
2022/07/22 02:41:19;;;;;;;12.80;6.68;;;;;;;15.51;87.74;100815.28;10218069;28;20054;-80
2022/07/22 02:46:29;;;;;;;8.82;5.95;;;;;;;15.58;87.39;100816.44;10202227;28;20533;-79
2022/07/22 02:51:39;;;;;;;9.30;5.65;;;;;;;15.40;87.94;100814.44;10221963;28;20051;-79
2022/07/22 02:56:43;;;;;;;9.65;5.63;;;;;;;15.59;87.37;100810.00;10209733;28;20059;-80
2022/07/22 03:01:46;;;;;;;8.13;6.15;;;;;;;15.48;87.92;100813.72;10231553;28;20054;-79
2022/07/22 03:06:50;;;;;;;13.95;6.38;;;;;;;15.54;87.06;100809.59;10209685;28;20134;-78
2022/07/22 03:11:57;;;;;;;14.77;6.43;;;;;;;15.31;87.74;100822.56;10201775;28;20047;-80
2022/07/22 03:17:00;;;;;;;15.75;6.50;;;;;;;15.09;88.29;100829.16;10219622;28;20043;-79
2022/07/22 03:22:04;;;;;;;16.10;6.55;;;;;;;15.34;87.84;100836.69;10220874;28;20420;-78
2022/07/22 03:27:08;;;;;;;13.07;6.43;;;;;;;15.39;86.58;100837.13;10206748;28;20058;-79
2022/07/22 03:32:11;;;;;;;17.60;6.57;;;;;;;15.21;86.43;100836.94;10207467;28;20063;-79
2022/07/22 03:37:23;;;;;;;11.48;7.07;;;;;;;15.46;85.38;100831.97;10214644;28;20051;-79
2022/07/22 03:42:26;;;;;;;12.57;6.25;;;;;;;15.17;86.23;100840.97;10223041;28;20366;-78
2022/07/22 03:47:29;;;;;;;14.75;6.55;;;;;;;15.02;85.42;100835.09;10210847;28;20043;-79
2022/07/22 03:52:34;;;;;;;16.08;6.72;;;;;;;15.14;85.86;100840.38;10211821;28;20052;-79
2022/07/22 03:57:40;;;;;;;15.32;6.75;;;;;;;15.21;85.54;100838.81;10205745;28;20054;-78
2022/07/22 04:02:51;;;;;;;14.93;7.03;;;;;;;15.42;85.14;100841.41;10198961;28;20055;-79
2022/07/22 04:08:17;;;;;;;16.98;6.95;;;;;;;15.17;84.69;100845.53;10205530;28;20550;-78
2022/07/22 04:13:22;;;;;;;13.68;7.05;;;;;;;15.22;85.10;100851.31;10202798;28;20070;-78
2022/07/22 04:18:31;;;;;;;13.23;6.35;;;;;;;15.26;84.12;100848.19;10201908;28;20049;-80
2022/07/22 04:23:35;;;;;;;11.20;5.85;;;;;;;15.49;83.69;100858.75;10214011;28;20094;-79
2022/07/22 04:28:50;;;;;;;11.82;5.68;;;;;;;15.31;83.93;100863.16;10194709;28;20062;-80
2022/07/22 04:33:53;;;;;;;13.30;5.18;;;;;;;15.35;83.60;100868.16;10198706;28;20043;-78
2022/07/22 04:38:58;;;;;;;14.05;5.60;;;;;;;15.73;83.53;100855.56;10261178;28;20059;-79
2022/07/22 04:44:03;;;;;;;9.38;5.05;;;;;;;15.64;82.85;100861.88;10213535;29;20087;-80
2022/07/22 04:49:08;;;;;;;10.82;4.78;;;;;;;15.36;83.47;100859.06;10212433;28;20070;-79
2022/07/22 04:54:12;;;;;;;14.45;4.65;;;;;;;15.37;83.09;100860.75;10205719;28;20067;-79
2022/07/22 04:59:19;;;;;;;13.27;5.45;;;;;;;15.72;83.15;100862.00;10203449;28;20057;-79
2022/07/22 05:04:22;;;;;;;9.10;6.05;;;;;;;15.68;82.57;100855.16;10207654;28;20139;-78
2022/07/22 05:09:28;;;;;;;8.70;5.50;;;;;;;15.69;82.54;100859.59;10204005;28;20054;-78
2022/07/22 05:14:35;;;;;;;10.40;5.15;;;;;;;15.64;82.15;100862.72;10201489;28;20042;-79
2022/07/22 05:19:39;;;;;;;13.80;5.53;;;;;;;15.71;82.86;100860.25;10203758;28;20047;-80
2022/07/22 05:24:47;;;;;;;14.75;6.30;;;;;;;15.57;82.59;100864.28;10210865;28;20123;-81
2022/07/22 05:29:51;;;;;;;12.75;6.13;;;;;;;15.38;81.93;100867.88;10198832;28;20059;-81
2022/07/22 05:34:54;;;;;;;11.30;5.78;;;;;;;15.63;81.59;100871.84;10195719;28;20054;-81
2022/07/22 05:39:58;;;;;;;11.43;5.70;;;;;;;16.08;81.11;100865.72;10199710;29;20058;-82
2022/07/22 05:45:01;;;;;;;14.15;6.57;;;;;;;16.17;81.43;100871.25;10213554;28;20051;-82
2022/07/22 05:50:05;;;;;;;13.70;5.85;;;;;;;16.03;80.92;100872.59;10212864;28;20043;-81
2022/07/22 05:55:11;;;;;;;11.07;6.47;;;;;;;15.94;81.03;100879.75;10201198;28;20047;-81
2022/07/22 06:00:18;;;;;;;10.88;5.47;;;;;;;15.98;81.38;100881.16;10205180;28;20131;-82
2022/07/22 06:05:21;;;;;;;9.77;5.60;;;;;;;15.30;80.96;100885.81;10202905;28;20175;-81
2022/07/22 06:10:45;;;;;;;11.00;6.60;;;;;;;15.32;81.79;100892.78;10208466;28;20058;-82
2022/07/22 06:15:48;;;;;;;12.50;7.18;;;;;;;15.39;81.05;100893.97;10202338;28;20140;-81
2022/07/22 06:20:52;;;;;;;10.43;6.60;;;;;;;15.53;81.37;100903.50;10205517;28;20535;-82
2022/07/22 06:25:56;;;;;;;10.65;5.97;;;;;;;15.55;80.07;100897.91;10204197;28;20047;-82
2022/07/22 06:31:05;;;;;;;13.57;5.90;;;;;;;15.64;81.36;100897.91;10199067;28;20051;-83
2022/07/22 06:36:09;;;;;;;10.98;6.22;;;;;;;15.48;81.94;100903.06;10212234;28;20162;-82
2022/07/22 06:41:18;;;;;;;13.68;6.28;;;;;;;15.74;82.45;100906.00;10208530;28;21187;-83
2022/07/22 06:46:42;;;;;;;12.88;6.10;;;;;;;16.12;80.99;100902.34;10168218;28;20841;-80
2022/07/22 06:51:46;;;;;;;10.70;5.07;;;;;;;16.77;80.30;100910.50;10236295;28;20047;-82
2022/07/22 06:56:50;;;;;;;10.57;5.35;;;;;;;16.76;80.39;100907.94;10241047;28;20048;-81
2022/07/22 07:01:58;;;;;;;6.75;2.92;;;;;;;16.66;77.61;100910.72;10240802;28;21221;-81
2022/07/22 07:07:01;;;;;;;9.15;2.97;;;;;;;16.94;79.03;100916.94;10242902;28;20093;-83
2022/07/22 07:12:14;;;;;;;8.05;3.50;;;;;;;16.67;78.85;100914.28;10241498;28;21175;-82
2022/07/22 07:17:57;;;;;;;10.45;4.40;;;;;;;16.61;78.31;100909.47;10230103;28;20081;-80
2022/07/22 07:23:01;;;;;;;12.85;4.38;;;;;;;16.63;79.13;100904.75;10236296;28;20055;-82
2022/07/22 07:28:07;;;;;;;15.20;5.18;;;;;;;16.56;78.60;100908.06;10233817;28;20043;-83
2022/07/22 07:33:45;;;;;;;11.15;3.80;;;;;;;15.91;78.16;100902.56;10194840;28;20089;-81
2022/07/22 07:38:49;;;;;;;8.13;4.10;;;;;;;16.52;80.89;100897.66;10203473;28;20817;-82
2022/07/22 07:43:54;;;;;;;11.90;4.03;;;;;;;16.67;78.30;100903.41;10205620;28;20048;-83
2022/07/22 07:48:57;;;;;;;14.35;3.88;;;;;;;17.11;79.54;100907.13;10198758;28;20053;-84
2022/07/22 07:54:02;;;;;;;11.73;4.65;;;;;;;17.32;79.04;100906.84;10209739;28;20048;-83
2022/07/22 07:59:10;;;;;;;8.93;3.22;;;;;;;17.89;76.57;100903.75;10202784;28;20145;-81
2022/07/22 08:04:30;;;;;;;10.00;4.20;;;;;;;18.39;73.31;100894.00;10201280;28;20048;-81
2022/07/22 08:09:40;;;;;;;6.95;4.63;;;;;;;18.84;67.90;100891.00;10205740;28;20047;-79
2022/07/22 08:14:53;;;;;;;7.80;3.97;;;;;;;18.27;68.88;100894.31;10223533;28;20074;-81
2022/07/22 08:20:01;;;;;;;9.43;4.40;;;;;;;18.49;69.63;100894.75;10211862;28;20062;-79
2022/07/22 08:25:06;;;;;;;6.60;3.92;;;;;;;18.30;69.09;100895.84;10224242;28;20043;-78
2022/07/22 08:30:12;;;;;;;9.50;3.95;;;;;;;17.93;68.38;100896.97;10229013;28;20126;-79
2022/07/22 08:35:15;;;;;;;9.25;3.90;;;;;;;17.74;74.28;100887.16;10232248;28;20185;-78
2022/07/22 08:40:19;;;;;;;6.10;3.42;;;;;;;17.65;71.26;100898.97;10231004;28;20092;-80
2022/07/22 08:45:24;;;;;;;8.98;3.05;;;;;;;18.21;73.73;100903.13;10222996;28;20513;-79
2022/07/22 08:50:27;;;;;;;7.70;3.00;;;;;;;18.77;67.27;100888.03;10224028;28;20043;-79
2022/07/22 08:55:34;;;;;;;4.72;3.28;;;;;;;17.98;67.17;100891.09;10197101;28;20047;-80
2022/07/22 09:00:39;;;;;;;8.27;3.95;;;;;;;18.39;67.27;100894.88;10192035;28;20051;-77
2022/07/22 09:05:43;;;;;;;6.60;4.05;;;;;;;18.43;69.69;100903.53;10194875;28;20509;-78
2022/07/22 09:10:52;;;;;;;7.88;4.18;;;;;;;18.68;72.28;100894.47;10204049;28;20051;-79
2022/07/22 09:16:15;;;;;;;8.50;3.95;;;;;;;19.12;66.85;100894.25;10194370;28;20055;-77
2022/07/22 09:21:30;;;;;;;9.23;4.18;;;;;;;19.09;65.02;100893.72;10200486;28;20051;-78
2022/07/22 09:26:45;;;;;;;8.48;3.63;;;;;;;18.96;69.07;100895.09;10198384;28;20066;-78
2022/07/22 09:32:07;;;;;;;8.25;4.13;;;;;;;18.65;68.45;100892.09;10196298;28;20587;-80
2022/07/22 09:37:24;;;;;;;7.50;3.65;;;;;;;18.64;69.19;100895.81;10197128;29;20497;-75
2022/07/22 09:42:27;;;;;;;6.22;4.00;;;;;;;18.63;65.37;100902.28;10202272;28;20052;-79
2022/07/22 09:47:32;;;;;;;11.90;3.90;;;;;;;18.72;68.70;100901.28;10220026;28;21205;-78
2022/07/22 09:53:01;;;;;;;9.40;4.90;;;;;;;18.44;66.68;100900.66;10198977;28;20055;-79
2022/07/22 09:58:08;;;;;;;7.32;3.63;;;;;;;18.71;65.52;100906.91;10201370;28;20063;-79
2022/07/22 10:03:28;;;;;;;8.90;4.20;;;;;;;18.93;69.53;100917.19;10199335;28;20047;-80
2022/07/22 10:08:33;;;;;;;6.93;4.18;;;;;;;18.88;65.80;100913.28;10207972;28;20050;-80
2022/07/22 10:13:40;;;;;;;5.05;3.50;;;;;;;18.27;65.83;100909.78;10206620;28;20601;-80
2022/07/22 10:18:47;;;;;;;4.38;3.25;;;;;;;18.19;65.47;100904.28;10212641;28;20043;-79
2022/07/22 10:24:09;;;;;;;4.63;3.85;;;;;;;18.41;66.55;100895.56;10199280;28;20051;-80
2022/07/22 10:29:27;;;;;;;8.30;4.18;;;;;;;18.90;68.05;100894.91;10217574;28;20513;-78
2022/07/22 10:34:31;;;;;;;8.57;3.83;;;;;;;19.00;62.86;100901.88;10212249;28;20055;-78
2022/07/22 10:39:34;;;;;;;8.95;3.90;;;;;;;19.35;65.24;100899.03;10204765;28;20043;-79
2022/07/22 10:44:47;;;;;;;5.32;3.67;;;;;;;19.87;65.61;100896.81;10198389;28;20047;-80
2022/07/22 10:50:49;;;;;;;4.07;3.70;;;;;;;20.23;66.42;100906.47;10202771;28;20051;-79
2022/07/22 10:56:00;;;;;;;5.63;4.10;;;;;;;18.90;61.64;100903.94;10184521;28;20055;-79
2022/07/22 11:01:06;;;;;;;8.85;4.28;;;;;;;18.04;64.48;100896.72;10209864;28;20098;-80
2022/07/22 11:06:22;;;;;;;10.82;4.20;;;;;;;17.29;63.03;100907.16;10198417;28;20052;-77
2022/07/22 11:11:34;;;;;;;9.10;4.55;;;;;;;17.28;66.08;100905.47;10210689;28;20051;-80
2022/07/22 11:16:37;;;;;;;8.40;4.43;;;;;;;18.17;64.15;100904.44;10206196;28;20086;-79
2022/07/22 11:21:41;;;;;;;8.10;4.93;;;;;;;18.64;65.43;100905.84;10209690;28;20135;-80
2022/07/22 11:26:49;;;;;;;12.80;4.32;;;;;;;18.34;63.16;100894.50;10204192;28;20064;-81
2022/07/22 11:31:53;;;;;;;9.57;4.15;;;;;;;18.41;63.22;100890.13;10203677;28;20398;-80
2022/07/22 11:36:58;;;;;;;8.20;4.43;;;;;;;18.29;61.57;100894.13;10207515;28;20056;-79
2022/07/22 11:42:01;;;;;;;9.32;5.30;;;;;;;18.44;60.69;100892.50;10206018;28;20047;-78
2022/07/22 11:47:05;;;;;;;6.53;4.28;;;;;;;18.46;62.84;100889.66;10199076;28;20133;-79
2022/07/22 11:52:12;;;;;;;8.77;4.40;;;;;;;19.10;60.81;100890.00;10213268;28;21216;-81
2022/07/22 11:57:15;;;;;;;8.00;4.28;;;;;;;17.67;62.87;100891.53;10196659;28;20146;-80
2022/07/22 12:02:18;;;;;;;8.52;4.13;;;;;;;18.29;61.83;100869.66;10203450;29;20158;-79
2022/07/22 12:07:23;;;;;;;8.10;3.85;;;;;;;18.87;61.41;100874.31;10210654;28;20054;-80
2022/07/22 12:12:39;;;;;;;7.78;4.20;;;;;;;20.27;57.13;100862.31;10206147;28;20043;-80
2022/07/22 12:17:42;;;;;;;7.90;3.60;;;;;;;20.10;55.82;100860.63;10205030;28;20062;-79
2022/07/22 12:22:46;;;;;;;9.88;4.00;;;;;;;20.65;54.64;100864.34;10201553;28;21303;-79
2022/07/22 12:28:00;;;;;;;4.68;4.28;;;;;;;20.38;55.56;100866.56;10195694;29;20054;-79
2022/07/22 12:33:03;;;;;;;8.27;4.75;;;;;;;20.52;55.64;100863.06;10211013;28;20132;-80
2022/07/22 12:38:09;;;;;;;5.97;3.95;;;;;;;20.79;54.78;100863.63;10200450;28;20067;-78
2022/07/22 12:43:11;;;;;;;10.52;4.75;;;;;;;20.96;54.54;100867.09;10212351;28;20118;-79
2022/07/22 12:48:14;;;;;;;5.57;4.70;;;;;;;20.79;55.46;100863.63;10207219;28;20047;-81
2022/07/22 12:53:18;;;;;;;9.45;4.70;;;;;;;20.26;55.73;100862.47;10214979;28;20055;-79
2022/07/22 12:58:22;;;;;;;10.05;4.20;;;;;;;21.24;55.42;100856.50;10233592;28;20067;-81
2022/07/22 13:03:26;;;;;;;7.10;4.72;;;;;;;21.44;54.67;100845.91;10198079;28;20052;-80
2022/07/22 13:08:31;;;;;;;5.43;3.65;;;;;;;20.12;54.42;100864.91;10239809;28;20040;-81
2022/07/22 13:13:47;;;;;;;9.40;4.50;;;;;;;19.49;57.97;100845.75;10226375;28;20055;-80
2022/07/22 13:18:51;;;;;;;8.95;5.30;;;;;;;20.59;56.69;100843.25;10236315;28;20059;-80
2022/07/22 13:23:55;;;;;;;6.50;4.30;;;;;;;20.14;56.49;100840.19;10228156;28;20058;-81
2022/07/22 13:28:59;;;;;;;8.70;4.93;;;;;;;19.72;55.91;100840.47;10229498;28;20102;-81
2022/07/22 13:34:02;;;;;;;6.43;4.40;;;;;;;19.50;58.86;100847.44;10232765;28;20065;-81
2022/07/22 13:39:06;;;;;;;9.23;5.32;;;;;;;20.19;57.18;100845.97;10231944;28;20079;-80
2022/07/22 13:44:09;;;;;;;8.27;4.78;;;;;;;20.59;56.21;100843.25;10233960;28;20049;-81
2022/07/22 13:49:13;;;;;;;13.48;5.90;;;;;;;20.42;56.57;100837.88;10207619;28;20051;-80
2022/07/22 13:54:17;;;;;;;7.65;4.10;;;;;;;20.05;55.78;100839.38;10201260;28;20420;-80
2022/07/22 13:59:20;;;;;;;10.80;4.88;;;;;;;19.73;57.68;100831.28;10207450;28;20106;-80
2022/07/22 14:04:23;;;;;;;5.57;4.60;;;;;;;19.74;57.58;100830.25;10196911;28;20823;-79
2022/07/22 14:09:27;;;;;;;6.88;4.50;;;;;;;19.26;57.56;100838.28;10208364;28;20401;-81
2022/07/22 14:14:38;;;;;;;9.48;4.80;;;;;;;19.88;58.29;100824.06;10212186;28;20136;-81
2022/07/22 14:19:41;;;;;;;6.15;4.35;;;;;;;20.29;56.86;100822.03;10209843;28;20086;-81
2022/07/22 14:24:45;;;;;;;7.60;5.05;;;;;;;20.58;55.63;100820.56;10214412;28;20260;-81
2022/07/22 14:29:48;;;;;;;7.03;5.22;;;;;;;20.60;56.59;100810.34;10203057;28;20062;-82
2022/07/22 14:34:51;;;;;;;10.57;3.97;;;;;;;20.69;56.83;100813.84;10206451;28;20087;-80
2022/07/22 14:39:56;;;;;;;8.38;4.47;;;;;;;20.63;56.10;100820.88;10208238;28;20138;-80
2022/07/22 14:44:58;;;;;;;8.02;4.57;;;;;;;20.49;54.85;100811.59;10231707;28;20043;-81
2022/07/22 14:50:01;;;;;;;7.47;5.18;;;;;;;20.05;55.51;100811.25;10233408;28;20055;-80
2022/07/22 14:55:06;;;;;;;8.52;4.70;;;;;;;19.69;56.38;100817.13;10210970;28;20047;-79
2022/07/22 15:00:09;;;;;;;5.50;4.20;;;;;;;19.57;57.54;100816.66;10202898;28;20052;-78
2022/07/22 15:05:13;;;;;;;9.23;4.70;;;;;;;19.24;57.61;100800.31;10209917;28;20051;-78
2022/07/22 15:10:18;;;;;;;5.55;3.92;;;;;;;19.30;58.21;100812.38;10203055;28;20043;-79
2022/07/22 15:15:21;;;;;;;8.05;4.13;;;;;;;19.63;57.33;100805.06;10202170;28;20055;-80
2022/07/22 15:20:24;;;;;;;8.27;4.35;;;;;;;19.97;57.75;100803.09;10200883;28;20473;-81
2022/07/22 15:25:29;;;;;;;5.50;4.35;;;;;;;20.01;57.24;100802.56;10201617;28;20131;-80
2022/07/22 15:30:32;;;;;;;10.63;5.40;;;;;;;20.10;57.54;100796.06;10207387;28;20048;-81
2022/07/22 15:35:35;;;;;;;8.20;4.15;;;;;;;20.15;58.16;100795.50;10195719;28;20082;-80
2022/07/22 15:40:39;;;;;;;10.98;4.18;;;;;;;20.10;57.45;100785.16;10204803;28;20173;-80
2022/07/22 15:45:42;;;;;;;6.25;4.38;;;;;;;20.18;57.53;100792.44;10200247;28;20062;-79
2022/07/22 15:50:45;;;;;;;8.68;5.13;;;;;;;20.19;57.01;100782.41;10218095;28;20058;-80
2022/07/22 15:55:49;;;;;;;6.68;4.28;;;;;;;20.39;56.41;100780.94;10208006;28;20086;-81
2022/07/22 16:00:52;;;;;;;7.57;4.85;;;;;;;19.84;56.01;100781.84;10197908;28;20054;-78
2022/07/22 16:05:55;;;;;;;5.05;3.88;;;;;;;20.13;57.07;100773.91;10201682;28;20063;-80
2022/07/22 16:10:59;;;;;;;13.32;4.93;;;;;;;20.16;56.70;100758.19;10197530;28;20135;-79
2022/07/22 16:16:02;;;;;;;7.75;4.38;;;;;;;20.63;56.53;100765.47;10203558;28;20454;-79
2022/07/22 16:21:05;;;;;;;6.03;4.10;;;;;;;20.61;55.84;100760.16;10207823;28;20138;-80
2022/07/22 16:26:10;;;;;;;10.65;4.05;;;;;;;20.36;54.74;100758.63;10209909;28;20102;-81
2022/07/22 16:31:13;;;;;;;6.68;4.45;;;;;;;20.65;55.94;100766.97;10203501;28;20051;-79
2022/07/22 16:36:16;;;;;;;8.13;4.70;;;;;;;20.87;54.62;100761.66;10207057;28;20509;-80
2022/07/22 16:41:20;;;;;;;6.95;5.07;;;;;;;20.62;54.25;100753.66;10199742;28;20047;-80
2022/07/22 16:46:23;;;;;;;7.70;4.78;;;;;;;20.84;53.45;100749.22;10203392;28;20524;-77
2022/07/22 16:51:26;;;;;;;9.57;4.82;;;;;;;21.00;54.80;100749.09;10199668;28;20055;-80
2022/07/22 16:56:34;;;;;;;8.20;5.00;;;;;;;21.12;53.95;100743.25;10215849;28;21178;-80
2022/07/22 17:01:36;;;;;;;7.40;4.88;;;;;;;20.82;53.59;100745.03;10214399;28;20134;-79
2022/07/22 17:06:39;;;;;;;6.72;4.97;;;;;;;20.65;55.29;100738.81;10234135;28;20051;-80
2022/07/22 17:11:44;;;;;;;7.95;5.10;;;;;;;20.62;55.32;100745.47;10229074;28;20057;-80
2022/07/22 17:16:46;;;;;;;12.48;5.30;;;;;;;20.54;55.46;100738.22;10230143;28;20076;-78
2022/07/22 17:21:49;;;;;;;5.53;4.07;;;;;;;20.52;55.27;100742.16;10230007;28;20046;-77
2022/07/22 17:26:54;;;;;;;7.88;4.45;;;;;;;20.46;55.76;100741.00;10235489;28;20079;-78
2022/07/22 17:31:57;;;;;;;9.10;5.25;;;;;;;20.44;55.34;100743.06;10228687;28;20516;-78
2022/07/22 17:37:00;;;;;;;7.45;4.68;;;;;;;20.53;56.04;100739.22;10212244;28;21245;-79
2022/07/22 17:42:04;;;;;;;15.07;5.32;;;;;;;20.71;55.68;100729.91;10185941;28;20525;-78
2022/07/22 17:47:07;;;;;;;7.88;4.63;;;;;;;20.75;55.43;100723.88;10197360;28;20432;-78
2022/07/22 17:52:10;;;;;;;6.95;4.57;;;;;;;20.56;55.83;100733.41;10200889;28;20061;-79
2022/07/22 17:57:14;;;;;;;7.40;4.72;;;;;;;20.29;56.40;100745.66;10202589;28;20681;-79
2022/07/22 18:02:17;;;;;;;6.28;4.40;;;;;;;20.27;56.45;100723.19;10205030;28;20107;-78
2022/07/22 18:07:20;;;;;;;4.85;3.97;;;;;;;20.34;56.93;100728.78;10193137;28;20781;-78
2022/07/22 18:12:27;;;;;;;5.82;4.00;;;;;;;20.15;57.97;100723.75;10200556;28;20111;-79
2022/07/22 18:17:30;;;;;;;6.18;4.70;;;;;;;19.94;58.17;100716.19;10202250;28;20078;-78
2022/07/22 18:22:32;;;;;;;9.88;5.15;;;;;;;19.63;59.36;100723.31;10205378;28;20101;-78
2022/07/22 18:27:37;;;;;;;11.02;6.45;;;;;;;19.34;59.93;100723.03;10211516;28;20054;-79
2022/07/22 18:32:40;;;;;;;7.32;3.90;;;;;;;18.85;61.15;100721.22;10201592;28;20141;-78
2022/07/22 18:37:42;;;;;;;6.28;4.32;;;;;;;18.74;62.60;100722.38;10189989;28;20055;-79
2022/07/22 18:42:47;;;;;;;7.47;4.97;;;;;;;18.67;62.75;100724.06;10204459;28;20103;-79
2022/07/22 18:47:49;;;;;;;6.00;4.32;;;;;;;18.42;62.45;100716.91;10218397;28;20575;-79
2022/07/22 18:52:52;;;;;;;5.93;4.63;;;;;;;18.38;63.13;100710.94;10211096;28;20078;-78
2022/07/22 18:57:57;;;;;;;10.18;4.47;;;;;;;18.13;63.19;100724.50;10204922;28;20118;-79
2022/07/22 19:02:59;;;;;;;10.40;4.25;;;;;;;17.89;64.08;100725.22;10218073;28;20051;-79
2022/07/22 19:08:02;;;;;;;7.43;5.60;;;;;;;17.62;65.12;100714.59;10215332;28;20047;-79
2022/07/22 19:13:06;;;;;;;8.60;4.45;;;;;;;17.54;65.73;100700.97;10209042;28;20490;-79
2022/07/22 19:18:09;;;;;;;8.35;4.32;;;;;;;17.46;66.24;100693.63;10204959;28;20765;-79
2022/07/22 19:23:12;;;;;;;6.50;4.60;;;;;;;17.35;66.31;100711.03;10204342;28;20055;-79
2022/07/22 19:28:17;;;;;;;7.20;4.85;;;;;;;17.17;65.93;100726.56;10208552;28;20146;-79
2022/07/22 19:33:20;;;;;;;7.72;5.00;;;;;;;17.17;66.45;100731.97;10204073;28;20044;-79
2022/07/22 19:38:23;;;;;;;6.45;4.90;;;;;;;17.17;66.39;100716.53;10201487;28;20050;-80
2022/07/22 19:43:27;;;;;;;10.95;4.95;;;;;;;17.14;67.25;100707.84;10201975;28;20126;-79
2022/07/22 19:48:30;;;;;;;6.53;4.97;;;;;;;17.08;66.91;100703.88;10194271;28;20047;-78
2022/07/22 19:53:33;;;;;;;7.10;5.05;;;;;;;17.12;67.15;100699.84;10193487;28;20052;-77
2022/07/22 19:58:38;;;;;;;8.65;4.93;;;;;;;17.20;67.34;100697.22;10198320;28;20155;-78
2022/07/22 20:03:41;;;;;;;12.52;5.82;;;;;;;17.23;67.55;100701.47;10198886;28;20059;-78
2022/07/22 20:08:44;;;;;;;13.18;5.95;;;;;;;17.21;67.61;100687.19;10205265;28;20071;-78
2022/07/22 20:13:48;;;;;;;9.27;5.88;;;;;;;17.18;67.46;100682.09;10213208;28;20097;-77
2022/07/22 20:18:51;;;;;;;11.77;6.55;;;;;;;17.19;67.80;100683.78;10208424;28;20067;-78
2022/07/22 20:23:54;;;;;;;13.23;6.35;;;;;;;17.20;67.88;100683.63;10203548;28;20137;-79
2022/07/22 20:28:58;;;;;;;10.23;6.80;;;;;;;17.25;68.31;100692.16;10199126;28;20055;-76
2022/07/22 20:34:02;;;;;;;11.85;6.80;;;;;;;17.13;67.81;100684.41;10186978;29;20059;-81
2022/07/22 20:39:05;;;;;;;9.25;6.07;;;;;;;17.01;67.96;100692.81;10195999;29;20505;-78
2022/07/22 20:44:09;;;;;;;7.35;6.15;;;;;;;16.95;67.73;100688.03;10209864;28;20126;-78
2022/07/22 20:49:12;;;;;;;9.27;6.10;;;;;;;16.98;67.90;100689.56;10229058;28;20204;-78
2022/07/22 20:54:14;;;;;;;9.00;5.95;;;;;;;16.96;67.88;100683.44;10202009;28;20091;-79
2022/07/22 20:59:19;;;;;;;10.27;5.93;;;;;;;16.90;68.77;100675.94;10196308;28;20078;-78
2022/07/22 21:04:22;;;;;;;7.82;6.30;;;;;;;16.87;69.26;100679.84;10193869;28;20062;-78
2022/07/22 21:09:25;;;;;;;12.25;6.53;;;;;;;16.80;68.70;100693.16;10201718;28;20556;-79
2022/07/22 21:14:29;;;;;;;8.55;6.45;;;;;;;16.68;68.84;100693.59;10193983;28;20114;-77
2022/07/22 21:19:32;;;;;;;9.02;6.05;;;;;;;16.65;68.18;100699.28;10201048;28;20047;-78
2022/07/22 21:24:35;;;;;;;10.48;5.70;;;;;;;16.58;69.22;100701.78;10191283;28;20046;-78
2022/07/22 21:29:39;;;;;;;8.20;6.50;;;;;;;16.65;69.59;100691.16;10236274;28;20055;-78
2022/07/22 21:34:43;;;;;;;7.22;6.00;;;;;;;16.69;69.73;100677.13;10206581;28;20051;-77
2022/07/22 21:39:46;;;;;;;8.45;6.82;;;;;;;16.67;69.56;100683.72;10183320;29;20043;-78
2022/07/22 21:44:50;;;;;;;10.77;6.13;;;;;;;16.55;69.69;100705.66;10206711;28;20055;-78
2022/07/22 21:49:53;;;;;;;10.23;5.72;;;;;;;16.23;70.79;100708.88;10206718;28;20122;-76
2022/07/22 21:54:56;;;;;;;9.00;6.43;;;;;;;16.27;71.08;100701.34;10203885;28;20406;-77
2022/07/22 22:00:00;;;;;;;11.23;7.43;;;;;;;16.32;70.62;100705.28;10202246;28;20162;-79
2022/07/22 22:05:03;;;;;;;14.77;7.30;;;;;;;16.30;71.14;100706.44;10198145;28;20050;-78
2022/07/22 22:10:07;;;;;;;11.98;7.15;;;;;;;16.13;71.39;100708.09;10189646;29;20043;-77
2022/07/22 22:15:11;;;;;;;8.00;7.20;;;;;;;16.10;71.67;100706.56;10212902;28;20162;-76
2022/07/22 22:20:14;;;;;;;11.65;7.07;;;;;;;16.10;71.89;100705.72;10205867;28;20091;-77
2022/07/22 22:25:17;;;;;;;8.00;7.22;;;;;;;16.09;72.01;100704.81;10217880;28;20144;-78
2022/07/22 22:30:21;;;;;;;8.52;7.20;;;;;;;16.03;72.19;100705.44;10195368;28;20177;-77
2022/07/22 22:35:24;;;;;;;9.43;7.60;;;;;;;15.99;72.35;100704.06;10218152;28;20733;-76
2022/07/22 22:40:27;;;;;;;11.15;7.30;;;;;;;15.88;73.13;100705.13;10199965;28;20079;-78
2022/07/22 22:45:31;;;;;;;10.15;7.63;;;;;;;15.82;73.11;100692.16;10193859;28;20189;-78
2022/07/22 22:50:34;;;;;;;9.25;7.70;;;;;;;15.78;72.91;100704.31;10205558;28;20043;-78
2022/07/22 22:55:37;;;;;;;12.57;7.88;;;;;;;15.66;73.42;100709.06;10204574;28;20051;-77
2022/07/22 23:00:41;;;;;;;12.70;8.43;;;;;;;15.59;73.13;100710.66;10196506;28;20118;-78
2022/07/22 23:05:44;;;;;;;10.40;7.63;;;;;;;15.54;73.45;100712.97;10194958;28;20508;-78
2022/07/22 23:10:47;;;;;;;11.18;7.85;;;;;;;15.42;73.92;100697.94;10195178;28;20386;-76
2022/07/22 23:15:51;;;;;;;10.65;8.27;;;;;;;15.35;74.01;100700.34;10198879;28;20047;-80